Fish Play — WDH8753 — position and weather

sailwx.info

Track history (hours):
 
Tides and Currents Weather Stations Pressure Air Temp Water Temp Dewpoint Dewpoint Depression Visibility Wind Speed Wind Dir Waves Ship Positions

Fish Play

Owner: Fish Play Charters LLC, Federalsburg, MD. More information available from US FCC via Universal Licensing System and Coast Guard Vessel Documentation Center.

Last reported at 2018-Aug-06 19:35 UTC. Time now 2018-Aug-14 19:27 UTC.
Position N 37°52' W 122°19'.

Length 18 m.

Type: Passenger vessel. MMSI: 338208626.

Date/timePositionNaut miles runAvg speedWind from/ knotsBaromVisibWave heightAir tempDewpointWater temp
2018-Aug-06 19:35N 37°52' W 122°19'0 0.0
2018-Aug-06 19:31N 37°52' W 122°19'4 7.1
2018-Aug-06 19:00N 37°54' W 122°22'1 2.1
2018-Aug-06 18:30N 37°55' W 122°22'2 4.2
2018-Aug-06 18:01N 37°55' W 122°25'2 4.0
2018-Aug-06 17:31N 37°55' W 122°22'2 3.8
2018-Aug-06 17:00N 37°54' W 122°23'  
2018-Aug-01 17:58N 37°52' W 122°19'0 0.5
2018-Aug-01 17:30N 37°52' W 122°19'0 0.5
2018-Aug-01 17:00N 37°52' W 122°19'0 0.0
2018-Aug-01 16:30N 37°52' W 122°19'0 0.0
2018-Aug-01 16:00N 37°52' W 122°19'0 0.0
2018-Aug-01 15:30N 37°52' W 122°19'0 0.0
2018-Aug-01 15:00N 37°52' W 122°19'0 0.0
2018-Aug-01 14:00N 37°52' W 122°19'0 0.0
2018-Aug-01 13:30N 37°52' W 122°19'0 0.0
2018-Aug-01 13:00N 37°52' W 122°19'0 0.0
2018-Aug-01 12:30N 37°52' W 122°19'0 0.0
2018-Aug-01 12:00N 37°52' W 122°19'0 0.0
2018-Aug-01 11:30N 37°52' W 122°19'0 0.0
2018-Aug-01 11:00N 37°52' W 122°19'0 0.0
2018-Aug-01 10:30N 37°52' W 122°19'0 0.0
2018-Aug-01 09:59N 37°52' W 122°19'0 0.0
2018-Aug-01 09:30N 37°52' W 122°19'0 0.0
2018-Aug-01 09:00N 37°52' W 122°19'0 0.0
2018-Aug-01 08:30N 37°52' W 122°19'0 0.0
2018-Aug-01 08:00N 37°52' W 122°19'0 0.0
2018-Aug-01 07:30N 37°52' W 122°19'0 0.0
2018-Aug-01 07:00N 37°52' W 122°19'0 0.0
2018-Aug-01 06:30N 37°52' W 122°19'0 0.0
2018-Aug-01 06:00N 37°52' W 122°19'0 0.0
2018-Aug-01 05:30N 37°52' W 122°19'0 0.0
2018-Aug-01 05:00N 37°52' W 122°19'0 0.0
2018-Aug-01 04:30N 37°52' W 122°19'0 0.0
2018-Aug-01 04:00N 37°52' W 122°19'0 0.0
2018-Aug-01 03:30N 37°52' W 122°19'0 0.0
2018-Aug-01 03:00N 37°52' W 122°19'0 0.0
2018-Aug-01 02:30N 37°52' W 122°19'0 0.0
2018-Aug-01 02:00N 37°52' W 122°19'0 0.0
2018-Aug-01 01:30N 37°52' W 122°19'0 0.0
2018-Aug-01 00:59N 37°52' W 122°19'0 0.0
2018-Jul-31 22:30N 37°52' W 122°19'0 0.0
2018-Jul-31 22:00N 37°52' W 122°19'0 0.0
2018-Jul-31 21:30N 37°52' W 122°19'0 0.0
2018-Jul-31 21:00N 37°52' W 122°19'0 0.0
2018-Jul-31 20:30N 37°52' W 122°19'0 0.0
2018-Jul-31 20:00N 37°52' W 122°19'5 9.0
2018-Jul-31 19:31N 37°54' W 122°24'1 2.9
2018-Jul-31 19:00N 37°55' W 122°22'  
2018-Jul-28 14:30N 37°55' W 122°22'0 0.0
2018-Jul-28 14:00N 37°55' W 122°22'0 0.0
2018-Jul-28 13:30N 37°55' W 122°22'0 0.0
2018-Jul-28 13:00N 37°55' W 122°22'0 0.0
2018-Jul-28 12:30N 37°55' W 122°22'0 0.0
2018-Jul-28 12:00N 37°55' W 122°22'0 0.0
2018-Jul-28 11:30N 37°55' W 122°22'0 0.0
2018-Jul-28 11:00N 37°55' W 122°22'0 0.0
2018-Jul-28 10:30N 37°55' W 122°22'0 0.0
2018-Jul-28 10:00N 37°55' W 122°22'0 0.0
2018-Jul-28 09:30N 37°55' W 122°22'0 0.0
2018-Jul-28 09:00N 37°55' W 122°22'0 0.0
2018-Jul-28 08:30N 37°55' W 122°22'0 0.0
2018-Jul-28 08:00N 37°55' W 122°22'0 0.0
2018-Jul-28 07:30N 37°55' W 122°22'0 0.0
2018-Jul-28 07:00N 37°55' W 122°22'0 0.0
2018-Jul-28 06:30N 37°55' W 122°22'0 0.0
2018-Jul-28 06:00N 37°55' W 122°22'0 0.0
2018-Jul-28 05:30N 37°55' W 122°22'0 0.0
2018-Jul-28 05:00N 37°55' W 122°22'0 0.0
2018-Jul-28 04:30N 37°55' W 122°22'0 0.0
2018-Jul-28 04:00N 37°55' W 122°22'0 0.0
2018-Jul-28 03:30N 37°55' W 122°22'0 0.0
2018-Jul-28 03:00N 37°55' W 122°22'0 0.0
2018-Jul-28 02:30N 37°55' W 122°22'0 0.0
2018-Jul-28 02:00N 37°55' W 122°22'0 0.0
2018-Jul-28 01:30N 37°55' W 122°22'0 0.0
2018-Jul-28 01:00N 37°55' W 122°22'0 0.0
2018-Jul-28 00:30N 37°55' W 122°22'0 0.0
2018-Jul-28 00:00N 37°55' W 122°22'0 0.0
2018-Jul-27 23:30N 37°55' W 122°22'0 0.0
2018-Jul-27 23:00N 37°55' W 122°22'0 0.0
2018-Jul-27 22:30N 37°55' W 122°22'0 0.0
2018-Jul-27 22:00N 37°55' W 122°22'0 0.0
2018-Jul-27 21:30N 37°55' W 122°22'0 0.0
2018-Jul-27 21:00N 37°55' W 122°22'0 0.0
2018-Jul-27 20:30N 37°55' W 122°22'0 0.0
2018-Jul-27 20:00N 37°55' W 122°22'  
Track history (hours):
 
Tides and Currents Weather Stations Pressure Air Temp Water Temp Dewpoint Dewpoint Depression Visibility Wind Speed Wind Dir Waves Ship Positions

Fish Play

Owner: Fish Play Charters LLC, Federalsburg, MD. More information available from US FCC via Universal Licensing System and Coast Guard Vessel Documentation Center.

Last reported at 2018-Aug-06 19:35 UTC. Time now 2018-Aug-14 19:27 UTC.
Position N 37°52' W 122°19'.

Length 18 m.

Type: Passenger vessel. MMSI: 338208626.

Date/timePositionNaut miles runAvg speedWind from/ knotsBaromVisibWave heightAir tempDewpointWater temp
2018-Aug-06 19:35N 37°52' W 122°19'0 0.0
2018-Aug-06 19:31N 37°52' W 122°19'4 7.1
2018-Aug-06 19:00N 37°54' W 122°22'1 2.1
2018-Aug-06 18:30N 37°55' W 122°22'2 4.2
2018-Aug-06 18:01N 37°55' W 122°25'2 4.0
2018-Aug-06 17:31N 37°55' W 122°22'2 3.8
2018-Aug-06 17:00N 37°54' W 122°23'  
2018-Aug-01 17:58N 37°52' W 122°19'0 0.5
2018-Aug-01 17:30N 37°52' W 122°19'0 0.5
2018-Aug-01 17:00N 37°52' W 122°19'0 0.0
2018-Aug-01 16:30N 37°52' W 122°19'0 0.0
2018-Aug-01 16:00N 37°52' W 122°19'0 0.0
2018-Aug-01 15:30N 37°52' W 122°19'0 0.0
2018-Aug-01 15:00N 37°52' W 122°19'0 0.0
2018-Aug-01 14:00N 37°52' W 122°19'0 0.0
2018-Aug-01 13:30N 37°52' W 122°19'0 0.0
2018-Aug-01 13:00N 37°52' W 122°19'0 0.0
2018-Aug-01 12:30N 37°52' W 122°19'0 0.0
2018-Aug-01 12:00N 37°52' W 122°19'0 0.0
2018-Aug-01 11:30N 37°52' W 122°19'0 0.0
2018-Aug-01 11:00N 37°52' W 122°19'0 0.0
2018-Aug-01 10:30N 37°52' W 122°19'0 0.0
2018-Aug-01 09:59N 37°52' W 122°19'0 0.0
2018-Aug-01 09:30N 37°52' W 122°19'0 0.0
2018-Aug-01 09:00N 37°52' W 122°19'0 0.0
2018-Aug-01 08:30N 37°52' W 122°19'0 0.0
2018-Aug-01 08:00N 37°52' W 122°19'0 0.0
2018-Aug-01 07:30N 37°52' W 122°19'0 0.0
2018-Aug-01 07:00N 37°52' W 122°19'0 0.0
2018-Aug-01 06:30N 37°52' W 122°19'0 0.0
2018-Aug-01 06:00N 37°52' W 122°19'0 0.0
2018-Aug-01 05:30N 37°52' W 122°19'0 0.0
2018-Aug-01 05:00N 37°52' W 122°19'0 0.0
2018-Aug-01 04:30N 37°52' W 122°19'0 0.0
2018-Aug-01 04:00N 37°52' W 122°19'0 0.0
2018-Aug-01 03:30N 37°52' W 122°19'0 0.0
2018-Aug-01 03:00N 37°52' W 122°19'0 0.0
2018-Aug-01 02:30N 37°52' W 122°19'0 0.0
2018-Aug-01 02:00N 37°52' W 122°19'0 0.0
2018-Aug-01 01:30N 37°52' W 122°19'0 0.0
2018-Aug-01 00:59N 37°52' W 122°19'0 0.0
2018-Jul-31 22:30N 37°52' W 122°19'0 0.0
2018-Jul-31 22:00N 37°52' W 122°19'0 0.0
2018-Jul-31 21:30N 37°52' W 122°19'0 0.0
2018-Jul-31 21:00N 37°52' W 122°19'0 0.0
2018-Jul-31 20:30N 37°52' W 122°19'0 0.0
2018-Jul-31 20:00N 37°52' W 122°19'5 9.0
2018-Jul-31 19:31N 37°54' W 122°24'1 2.9
2018-Jul-31 19:00N 37°55' W 122°22'  
2018-Jul-28 14:30N 37°55' W 122°22'0 0.0
2018-Jul-28 14:00N 37°55' W 122°22'0 0.0
2018-Jul-28 13:30N 37°55' W 122°22'0 0.0
2018-Jul-28 13:00N 37°55' W 122°22'0 0.0
2018-Jul-28 12:30N 37°55' W 122°22'0 0.0
2018-Jul-28 12:00N 37°55' W 122°22'0 0.0
2018-Jul-28 11:30N 37°55' W 122°22'0 0.0
2018-Jul-28 11:00N 37°55' W 122°22'0 0.0
2018-Jul-28 10:30N 37°55' W 122°22'0 0.0
2018-Jul-28 10:00N 37°55' W 122°22'0 0.0
2018-Jul-28 09:30N 37°55' W 122°22'0 0.0
2018-Jul-28 09:00N 37°55' W 122°22'0 0.0
2018-Jul-28 08:30N 37°55' W 122°22'0 0.0
2018-Jul-28 08:00N 37°55' W 122°22'0 0.0
2018-Jul-28 07:30N 37°55' W 122°22'0 0.0
2018-Jul-28 07:00N 37°55' W 122°22'0 0.0
2018-Jul-28 06:30N 37°55' W 122°22'0 0.0
2018-Jul-28 06:00N 37°55' W 122°22'0 0.0
2018-Jul-28 05:30N 37°55' W 122°22'0 0.0
2018-Jul-28 05:00N 37°55' W 122°22'0 0.0
2018-Jul-28 04:30N 37°55' W 122°22'0 0.0
2018-Jul-28 04:00N 37°55' W 122°22'0 0.0
2018-Jul-28 03:30N 37°55' W 122°22'0 0.0
2018-Jul-28 03:00N 37°55' W 122°22'0 0.0
2018-Jul-28 02:30N 37°55' W 122°22'0 0.0
2018-Jul-28 02:00N 37°55' W 122°22'0 0.0
2018-Jul-28 01:30N 37°55' W 122°22'0 0.0
2018-Jul-28 01:00N 37°55' W 122°22'0 0.0
2018-Jul-28 00:30N 37°55' W 122°22'0 0.0
2018-Jul-28 00:00N 37°55' W 122°22'0 0.0
2018-Jul-27 23:30N 37°55' W 122°22'0 0.0
2018-Jul-27 23:00N 37°55' W 122°22'0 0.0
2018-Jul-27 22:30N 37°55' W 122°22'0 0.0
2018-Jul-27 22:00N 37°55' W 122°22'0 0.0
2018-Jul-27 21:30N 37°55' W 122°22'0 0.0
2018-Jul-27 21:00N 37°55' W 122°22'0 0.0
2018-Jul-27 20:30N 37°55' W 122°22'0 0.0
2018-Jul-27 20:00N 37°55' W 122°22'  

Dump ship's entire track history